Time;durP1;ratioP1;P1;durP2;ratioP2;P2;SDS_P1;SDS_P2;PMS_P1;PMS_P2;Temp;Humidity;BMP_temperature;BMP_pressure;BME280_temperature;BME280_humidity;BME280_pressure;Samples;Min_cycle;Max_cycle;Signal;HPM_P1;HPM_P2
2022/06/26 00:00:32;;;;;;;5.88;2.10;;;20.50;60.20;;;;;;7378153;19;20039;-87
2022/06/26 00:03:01;;;;;;;4.22;2.35;;;20.50;60.30;;;;;;7379311;19;20044;-86
2022/06/26 00:05:30;;;;;;;7.35;2.60;;;20.50;60.40;;;;;;7378747;19;20346;-86
2022/06/26 00:07:59;;;;;;;3.05;2.22;;;20.50;60.50;;;;;;7376815;19;20438;-86
2022/06/26 00:10:31;;;;;;;9.13;2.90;;;20.50;60.60;;;;;;7401445;19;20090;-87
2022/06/26 00:12:59;;;;;;;4.00;2.40;;;20.50;60.50;;;;;;7376882;19;20052;-85
2022/06/26 00:15:28;;;;;;;7.35;2.00;;;20.50;60.50;;;;;;7377365;19;20017;-86
2022/06/26 00:17:57;;;;;;;2.92;1.80;;;20.50;60.50;;;;;;7380757;19;20389;-86
2022/06/26 00:20:26;;;;;;;4.35;1.60;;;20.50;60.30;;;;;;7387608;19;20014;-86
2022/06/26 00:22:54;;;;;;;5.68;1.70;;;20.40;60.30;;;;;;7378588;19;20078;-85
2022/06/26 00:25:23;;;;;;;6.93;1.60;;;20.40;60.20;;;;;;7398221;19;20484;-85
2022/06/26 00:27:54;;;;;;;4.93;1.60;;;20.40;60.00;;;;;;7377442;19;20018;-85
2022/06/26 00:30:23;;;;;;;3.97;1.90;;;20.40;60.00;;;;;;7382125;19;20075;-86
2022/06/26 00:32:52;;;;;;;4.32;1.90;;;20.40;60.50;;;;;;7386355;19;20074;-86
2022/06/26 00:35:21;;;;;;;8.10;1.70;;;20.30;59.80;;;;;;7396248;19;20067;-85
2022/06/26 00:37:49;;;;;;;7.35;4.80;;;20.30;60.10;;;;;;7411189;19;20010;-86
2022/06/26 00:40:18;;;;;;;6.55;3.35;;;20.30;60.20;;;;;;7427828;19;20014;-85
2022/06/26 00:42:47;;;;;;;10.18;2.88;;;20.20;60.00;;;;;;7390716;19;20115;-85
2022/06/26 00:45:18;;;;;;;8.20;2.17;;;20.20;60.10;;;;;;7389071;19;20079;-85
2022/06/26 00:47:47;;;;;;;;;;;20.10;60.20;;;;;;7384702;19;20028;-86
2022/06/26 00:50:16;;;;;;;5.10;2.20;;;20.10;60.50;;;;;;7384187;19;20614;-85
2022/06/26 00:52:45;;;;;;;7.15;1.95;;;20.00;60.40;;;;;;7381051;19;20059;-85
2022/06/26 00:55:15;;;;;;;6.88;2.60;;;20.10;60.40;;;;;;7402578;19;20011;-86
2022/06/26 00:57:44;;;;;;;5.93;2.03;;;20.00;60.40;;;;;;7381882;19;20014;-85
2022/06/26 01:00:14;;;;;;;3.72;2.20;;;19.90;60.20;;;;;;7381683;19;20020;-85
2022/06/26 01:02:45;;;;;;;6.00;3.42;;;19.90;60.40;;;;;;7383161;19;20345;-85
2022/06/26 01:05:14;;;;;;;;;;;19.90;60.50;;;;;;7388668;19;20015;-85
2022/06/26 01:07:43;;;;;;;6.18;2.33;;;19.90;60.50;;;;;;7383036;19;19911;-85
2022/06/26 01:10:12;;;;;;;7.10;2.15;;;19.90;60.50;;;;;;7403751;19;20018;-86
2022/06/26 01:12:41;;;;;;;5.68;2.08;;;19.80;60.70;;;;;;7379499;19;20015;-86
2022/06/26 01:15:11;;;;;;;9.82;4.25;;;19.80;60.80;;;;;;7376062;19;20018;-85
2022/06/26 01:17:41;;;;;;;9.80;3.93;;;19.80;60.80;;;;;;7376506;19;20375;-85
2022/06/26 01:20:13;;;;;;;10.27;3.10;;;19.80;60.50;;;;;;7375945;19;20255;-85
2022/06/26 01:22:45;;;;;;;4.95;2.22;;;19.70;60.30;;;;;;7376918;19;20025;-85
2022/06/26 01:25:14;;;;;;;11.00;2.22;;;19.70;60.60;;;;;;7399832;19;20374;-86
2022/06/26 01:27:44;;;;;;;6.43;2.40;;;19.80;60.70;;;;;;7374786;19;20020;-85
2022/06/26 01:30:14;;;;;;;13.80;3.28;;;19.70;60.60;;;;;;7376439;19;20121;-85
2022/06/26 01:32:43;;;;;;;6.15;2.30;;;19.70;60.80;;;;;;7378183;19;20077;-85
2022/06/26 01:35:11;;;;;;;3.67;2.30;;;19.70;60.70;;;;;;7386726;19;20809;-85
2022/06/26 01:37:40;;;;;;;7.53;1.90;;;19.70;60.40;;;;;;7384039;19;20040;-86
2022/06/26 01:40:13;;;;;;;4.18;2.10;;;19.70;60.40;;;;;;7407099;19;20323;-86
2022/06/26 01:42:42;;;;;;;6.30;2.30;;;19.70;61.10;;;;;;7378825;19;20028;-85
2022/06/26 01:45:11;;;;;;;6.60;2.00;;;19.70;60.40;;;;;;7376687;19;20018;-86
2022/06/26 01:47:40;;;;;;;5.65;1.75;;;19.70;60.40;;;;;;7375963;19;20458;-86
2022/06/26 01:50:10;;;;;;;8.50;2.40;;;19.70;60.40;;;;;;7377541;19;20014;-86
2022/06/26 01:52:38;;;;;;;5.20;2.15;;;19.70;60.50;;;;;;7374807;19;20036;-87
2022/06/26 01:55:11;;;;;;;5.38;2.30;;;19.70;60.50;;;;;;7397316;19;20018;-86
2022/06/26 01:57:40;;;;;;;5.50;2.33;;;19.60;61.30;;;;;;7375059;19;20031;-86
2022/06/26 02:00:10;;;;;;;6.05;2.20;;;19.50;60.30;;;;;;7383391;19;20020;-86
2022/06/26 02:02:39;;;;;;;5.25;2.30;;;19.50;60.30;;;;;;7377918;19;20393;-86
2022/06/26 02:05:08;;;;;;;4.00;2.00;;;19.50;60.10;;;;;;7376228;19;20489;-86
2022/06/26 02:07:36;;;;;;;7.07;2.70;;;19.50;60.00;;;;;;7371999;19;20017;-85
2022/06/26 02:15:31;;;;;;;4.93;2.30;;;19.50;60.10;;;;;;7374320;19;20070;-86
2022/06/26 02:18:03;;;;;;;5.97;2.30;;;19.50;59.80;;;;;;7375255;19;20034;-86
2022/06/26 02:20:31;;;;;;;;;;;19.40;59.90;;;;;;7372596;19;20439;-87
2022/06/26 02:23:00;;;;;;;6.88;2.13;;;19.50;60.20;;;;;;7376561;19;19982;-86
2022/06/26 02:25:29;;;;;;;8.13;2.47;;;19.50;60.00;;;;;;7405454;19;20438;-86
2022/06/26 02:28:04;;;;;;;9.93;2.38;;;19.50;60.00;;;;;;7377303;19;20010;-86
2022/06/26 02:30:33;;;;;;;12.88;2.50;;;19.50;60.00;;;;;;7374673;19;20082;-86
2022/06/26 02:33:03;;;;;;;9.57;2.50;;;19.50;60.20;;;;;;7376328;19;20031;-86
2022/06/26 02:35:33;;;;;;;10.38;2.60;;;19.50;60.20;;;;;;7374547;19;20010;-86
2022/06/26 02:38:02;;;;;;;13.95;6.22;;;19.50;60.50;;;;;;7373168;19;20018;-86
2022/06/26 02:40:32;;;;;;;9.63;4.97;;;19.50;60.30;;;;;;7390300;19;20510;-84
2022/06/26 02:43:04;;;;;;;22.33;13.65;;;19.50;60.30;;;;;;7400447;19;20089;-86
2022/06/26 02:45:32;;;;;;;9.23;4.05;;;19.50;60.50;;;;;;7383881;19;20031;-86
2022/06/26 02:48:01;;;;;;;23.45;14.15;;;19.50;60.60;;;;;;7388440;19;20109;-87
2022/06/26 02:50:30;;;;;;;6.03;2.92;;;19.50;60.70;;;;;;7390097;19;20031;-87
2022/06/26 02:52:59;;;;;;;9.15;3.05;;;19.50;60.80;;;;;;7389333;19;20023;-87
2022/06/26 02:55:27;;;;;;;7.43;3.80;;;19.50;60.80;;;;;;7400956;19;20109;-86
2022/06/26 02:57:56;;;;;;;11.38;5.20;;;19.50;60.90;;;;;;7380408;19;20113;-86
2022/06/26 03:00:28;;;;;;;18.67;4.93;;;19.50;60.90;;;;;;7372234;19;20025;-87
2022/06/26 03:02:56;;;;;;;;;;;19.50;61.10;;;;;;7375579;19;20022;-87
2022/06/26 03:05:25;;;;;;;7.05;2.70;;;19.60;61.10;;;;;;7374483;19;20319;-87
2022/06/26 03:07:56;;;;;;;7.80;2.50;;;19.50;60.90;;;;;;7373128;19;20093;-87
2022/06/26 03:10:25;;;;;;;10.93;2.40;;;19.60;61.00;;;;;;7395687;19;20038;-86
2022/06/26 03:12:54;;;;;;;7.53;2.15;;;19.60;60.90;;;;;;7375868;19;20011;-86
2022/06/26 03:15:23;;;;;;;4.78;2.22;;;19.60;60.80;;;;;;7374400;19;20035;-87
2022/06/26 03:17:55;;;;;;;6.32;2.17;;;19.60;60.80;;;;;;7381656;19;20767;-87
2022/06/26 03:20:23;;;;;;;7.50;2.33;;;19.60;60.80;;;;;;7380008;19;20022;-87
2022/06/26 03:22:52;;;;;;;4.70;2.45;;;19.50;60.80;;;;;;7381479;19;21047;-87
2022/06/26 03:25:21;;;;;;;7.28;2.45;;;19.50;61.30;;;;;;7403243;19;20018;-86
2022/06/26 03:27:50;;;;;;;7.03;2.25;;;19.50;61.50;;;;;;7379923;19;20082;-87
2022/06/26 03:30:19;;;;;;;6.72;2.42;;;19.50;61.50;;;;;;7380472;19;20027;-86
2022/06/26 03:32:48;;;;;;;7.55;2.50;;;19.50;61.60;;;;;;7381318;19;20016;-85
2022/06/26 03:35:19;;;;;;;10.60;3.20;;;19.50;61.60;;;;;;7378916;19;20013;-86
2022/06/26 03:37:48;;;;;;;;;;;19.40;61.70;;;;;;7377719;19;20540;-86
2022/06/26 03:40:16;;;;;;;12.45;3.17;;;19.50;62.10;;;;;;7403587;19;19987;-86
2022/06/26 03:42:47;;;;;;;10.52;2.38;;;19.50;62.00;;;;;;7380100;19;20018;-86
2022/06/26 03:45:16;;;;;;;4.15;2.42;;;19.50;61.90;;;;;;7380151;19;20030;-86
2022/06/26 03:47:45;;;;;;;9.10;2.72;;;19.40;61.80;;;;;;7381974;19;20027;-86
2022/06/26 03:50:14;;;;;;;17.85;2.95;;;19.40;62.10;;;;;;7384400;19;20371;-86
2022/06/26 03:52:45;;;;;;;13.05;2.90;;;19.30;62.10;;;;;;7387838;19;20019;-85
2022/06/26 03:55:14;;;;;;;11.43;3.00;;;19.20;63.20;;;;;;7409344;19;20031;-86
2022/06/26 03:57:42;;;;;;;10.38;2.92;;;19.20;62.60;;;;;;7388068;19;20019;-86
2022/06/26 04:00:12;;;;;;;8.63;2.70;;;19.20;62.70;;;;;;7381039;19;20033;-86
2022/06/26 04:02:41;;;;;;;12.15;2.60;;;19.20;62.80;;;;;;7380183;19;20010;-85
2022/06/26 04:05:10;;;;;;;7.20;2.58;;;19.20;62.90;;;;;;7379655;19;20073;-86
2022/06/26 04:07:39;;;;;;;11.70;2.60;;;19.20;63.10;;;;;;7379273;19;20032;-86
2022/06/26 04:10:11;;;;;;;12.77;2.83;;;19.30;63.20;;;;;;7402526;19;20017;-86
2022/06/26 04:12:39;;;;;;;8.88;2.30;;;19.30;63.00;;;;;;7393405;19;20452;-85
2022/06/26 04:15:10;;;;;;;9.38;2.42;;;19.40;62.80;;;;;;7389391;19;20011;-86
2022/06/26 04:17:38;;;;;;;5.13;2.47;;;19.40;62.80;;;;;;7382864;19;20014;-85
2022/06/26 04:20:09;;;;;;;7.57;2.45;;;19.40;62.80;;;;;;7380760;19;20081;-85
2022/06/26 04:22:38;;;;;;;9.93;2.22;;;19.40;62.70;;;;;;7380065;19;20011;-86
2022/06/26 04:25:10;;;;;;;11.52;2.85;;;19.50;62.70;;;;;;7397683;19;20021;-86
2022/06/26 04:27:39;;;;;;;9.27;2.58;;;19.50;62.50;;;;;;7376526;19;20513;-86
2022/06/26 04:30:09;;;;;;;4.63;2.20;;;19.40;62.50;;;;;;7377852;19;20011;-86
2022/06/26 04:32:38;;;;;;;10.93;2.90;;;19.40;62.80;;;;;;7379900;19;20010;-86
2022/06/26 04:35:07;;;;;;;5.15;2.55;;;19.50;62.80;;;;;;7405416;19;19999;-86
2022/06/26 04:37:36;;;;;;;7.90;2.25;;;19.50;62.80;;;;;;7400987;19;20017;-83
2022/06/26 04:40:06;;;;;;;10.65;2.70;;;19.50;62.80;;;;;;7417316;19;20019;-85
2022/06/26 04:42:37;;;;;;;12.32;2.78;;;19.50;62.80;;;;;;7387405;19;20072;-86
2022/06/26 04:45:07;;;;;;;12.05;3.00;;;19.50;62.70;;;;;;7380809;19;20071;-85
2022/06/26 04:47:36;;;;;;;4.82;2.40;;;19.60;62.60;;;;;;7378660;19;20010;-86
2022/06/26 04:50:06;;;;;;;7.85;2.60;;;19.50;62.50;;;;;;7378149;19;20078;-86
2022/06/26 04:52:35;;;;;;;9.80;2.90;;;19.60;62.70;;;;;;7380265;19;20051;-86
2022/06/26 04:55:03;;;;;;;9.88;3.00;;;19.60;62.30;;;;;;7397806;19;20060;-86
2022/06/26 04:57:32;;;;;;;6.68;2.67;;;19.60;62.20;;;;;;7378259;19;20018;-86
2022/06/26 05:00:03;;;;;;;7.88;2.80;;;19.50;62.10;;;;;;7384457;19;20014;-85
2022/06/26 05:02:32;;;;;;;9.80;2.95;;;19.50;62.50;;;;;;7387947;19;20035;-87
2022/06/26 05:05:01;;;;;;;17.88;3.13;;;19.50;62.30;;;;;;7389915;19;20036;-87
2022/06/26 05:07:30;;;;;;;10.15;2.97;;;19.50;62.50;;;;;;7410920;19;20018;-88
2022/06/26 05:09:58;;;;;;;8.73;2.60;;;19.50;62.80;;;;;;7380008;19;20014;-87
2022/06/26 05:12:27;;;;;;;13.25;2.85;;;19.60;62.70;;;;;;7379397;19;20010;-87
2022/06/26 05:14:56;;;;;;;12.23;2.80;;;19.60;62.60;;;;;;7377224;19;20010;-87
2022/06/26 05:17:27;;;;;;;8.40;2.67;;;19.70;62.40;;;;;;7380110;19;20089;-87
2022/06/26 05:19:56;;;;;;;8.48;2.50;;;19.70;62.50;;;;;;7378344;19;20029;-86
2022/06/26 05:22:25;;;;;;;6.00;2.65;;;19.60;61.90;;;;;;7399514;19;20097;-87
2022/06/26 05:24:53;;;;;;;8.98;2.40;;;19.60;62.30;;;;;;7378990;19;20010;-84
2022/06/26 05:27:22;;;;;;;13.18;2.83;;;19.60;62.60;;;;;;7386554;19;20021;-89
2022/06/26 05:29:51;;;;;;;12.40;2.70;;;19.60;62.50;;;;;;7381540;19;20014;-83
2022/06/26 05:32:20;;;;;;;11.55;2.70;;;19.70;62.50;;;;;;7384591;19;20432;-84
2022/06/26 05:34:51;;;;;;;10.52;2.78;;;19.70;62.00;;;;;;7378711;19;20014;-85
2022/06/26 05:37:20;;;;;;;13.88;2.80;;;19.70;62.00;;;;;;7398210;19;20450;-84
2022/06/26 05:39:49;;;;;;;11.25;3.20;;;19.70;61.60;;;;;;7379558;19;20017;-85
2022/06/26 05:42:17;;;;;;;8.73;2.47;;;19.70;61.40;;;;;;7380715;19;20007;-84
2022/06/26 05:44:46;;;;;;;8.60;2.70;;;19.70;61.80;;;;;;7381155;19;20007;-84
2022/06/26 05:47:15;;;;;;;7.25;2.38;;;19.80;61.90;;;;;;7384098;19;20089;-85
2022/06/26 05:49:43;;;;;;;10.40;2.70;;;19.80;61.70;;;;;;7381552;19;20011;-85
2022/06/26 05:52:15;;;;;;;7.88;2.80;;;19.90;61.60;;;;;;7404403;19;20016;-84
2022/06/26 05:54:43;;;;;;;56.85;34.90;;;19.90;61.50;;;;;;7383067;19;20022;-84
2022/06/26 05:57:12;;;;;;;87.90;48.50;;;20.00;61.30;;;;;;7379672;19;20014;-88
2022/06/26 05:59:41;;;;;;;13.70;2.97;;;19.90;60.80;;;;;;7380232;19;20011;-83
2022/06/26 06:02:10;;;;;;;12.18;3.10;;;19.90;60.40;;;;;;7378975;19;20018;-85
2022/06/26 06:04:38;;;;;;;12.60;2.67;;;19.90;60.50;;;;;;7376190;19;20430;-84
2022/06/26 06:07:08;;;;;;;7.25;2.40;;;19.90;60.50;;;;;;7405438;19;20017;-85
2022/06/26 06:09:39;;;;;;;9.27;2.40;;;19.90;60.20;;;;;;7380502;19;20014;-83
2022/06/26 06:12:09;;;;;;;16.35;2.60;;;19.90;60.90;;;;;;7379601;19;20395;-84
2022/06/26 06:14:38;;;;;;;10.38;2.78;;;20.00;61.10;;;;;;7354834;19;20079;-85
2022/06/26 06:19:48;;;;;;;7.80;2.67;;;20.10;60.90;;;;;;7374681;19;20150;-84
2022/06/26 06:22:17;;;;;;;13.55;2.55;;;20.20;60.80;;;;;;7404461;19;20031;-85
2022/06/26 06:24:48;;;;;;;7.93;2.63;;;20.30;60.80;;;;;;7375720;19;20093;-84
2022/06/26 06:27:17;;;;;;;;;;;20.20;59.90;;;;;;7376057;19;20007;-84
2022/06/26 06:29:45;;;;;;;13.15;2.03;;;20.30;59.50;;;;;;7375610;19;19950;-83
2022/06/26 06:32:14;;;;;;;8.88;2.70;;;20.30;59.40;;;;;;7374651;19;20081;-85
2022/06/26 06:34:43;;;;;;;13.05;2.78;;;20.30;59.50;;;;;;7374617;19;20074;-82
2022/06/26 06:37:12;;;;;;;21.52;10.40;;;20.40;59.60;;;;;;7392918;19;20094;-83
2022/06/26 06:39:41;;;;;;;69.32;52.97;;;20.40;59.40;;;;;;7372744;19;22081;-81
2022/06/26 06:42:12;;;;;;;220.48;154.65;;;20.40;59.50;;;;;;7373114;19;20082;-82
2022/06/26 06:44:41;;;;;;;54.35;35.75;;;20.40;59.60;;;;;;7375566;19;20388;-82
2022/06/26 06:47:12;;;;;;;20.00;8.07;;;20.40;59.40;;;;;;7380112;19;20014;-82
2022/06/26 06:49:41;;;;;;;171.13;128.83;;;20.40;59.50;;;;;;7373297;19;20007;-82
2022/06/26 06:52:10;;;;;;;23.38;16.25;;;20.40;59.60;;;;;;7391371;19;20035;-82
2022/06/26 06:54:39;;;;;;;11.10;3.22;;;20.50;59.40;;;;;;7371396;19;20038;-82
2022/06/26 06:57:08;;;;;;;10.77;2.53;;;20.50;59.10;;;;;;7372660;19;20102;-82
2022/06/26 06:59:39;;;;;;;10.90;2.60;;;20.50;58.90;;;;;;7371224;19;20454;-82
2022/06/26 07:02:08;;;;;;;13.05;2.10;;;20.60;59.50;;;;;;7364481;19;20090;-84
2022/06/26 07:04:37;;;;;;;11.15;2.40;;;20.70;58.60;;;;;;7402808;19;20011;-85
2022/06/26 07:07:06;;;;;;;11.45;2.42;;;20.70;58.40;;;;;;7425490;19;20014;-88
2022/06/26 07:09:35;;;;;;;10.15;2.25;;;20.70;58.40;;;;;;7388629;19;20014;-82
2022/06/26 07:12:07;;;;;;;13.18;2.28;;;20.70;58.30;;;;;;7388254;19;20010;-83
2022/06/26 07:14:38;;;;;;;10.57;2.10;;;20.70;56.90;;;;;;7405999;19;20003;-87
2022/06/26 07:17:08;;;;;;;;;;;20.80;56.80;;;;;;7402629;19;20042;-83
2022/06/26 07:19:37;;;;;;;9.70;2.00;;;20.90;56.60;;;;;;7393981;19;19983;-82
2022/06/26 07:22:06;;;;;;;12.30;1.83;;;20.80;55.80;;;;;;7405799;19;20078;-82
2022/06/26 07:24:35;;;;;;;9.23;2.40;;;20.70;55.00;;;;;;7381337;19;20006;-84
2022/06/26 07:27:05;;;;;;;10.82;2.05;;;20.80;54.50;;;;;;7396810;19;20019;-83
2022/06/26 07:29:35;;;;;;;9.25;2.05;;;20.70;54.70;;;;;;7402347;19;20011;-79
2022/06/26 07:32:07;;;;;;;9.48;1.92;;;20.80;55.00;;;;;;7401911;19;20030;-79
2022/06/26 07:34:36;;;;;;;12.90;2.88;;;20.80;54.80;;;;;;7404165;19;20014;-80
2022/06/26 07:37:05;;;;;;;12.43;1.90;;;20.90;54.40;;;;;;7428258;19;20018;-80
2022/06/26 07:39:33;;;;;;;10.90;2.05;;;21.00;54.50;;;;;;7406332;19;20014;-84
2022/06/26 07:42:02;;;;;;;12.20;2.30;;;21.00;54.50;;;;;;7404998;19;20023;-83
2022/06/26 07:44:31;;;;;;;9.43;1.70;;;21.10;54.50;;;;;;7405361;19;20010;-84
2022/06/26 07:47:00;;;;;;;11.55;1.92;;;21.10;53.40;;;;;;7406839;19;20010;-83
2022/06/26 07:49:31;;;;;;;7.43;1.77;;;21.20;52.60;;;;;;7428227;19;20035;-84
2022/06/26 07:52:00;;;;;;;7.13;1.92;;;21.20;51.90;;;;;;7406523;19;20003;-84
2022/06/26 07:54:29;;;;;;;8.55;1.67;;;21.30;52.10;;;;;;7403802;19;20020;-83
2022/06/26 07:56:58;;;;;;;48.55;32.85;;;21.30;51.80;;;;;;7402870;19;20008;-81
2022/06/26 07:59:27;;;;;;;12.65;3.92;;;21.30;52.00;;;;;;7402527;19;20018;-82
2022/06/26 08:01:56;;;;;;;12.95;3.65;;;21.40;51.80;;;;;;7401638;19;20014;-82
2022/06/26 08:04:24;;;;;;;8.27;2.28;;;21.30;51.20;;;;;;7413761;19;20014;-83
2022/06/26 08:06:56;;;;;;;5.35;1.98;;;21.40;51.20;;;;;;7392742;19;20010;-83
2022/06/26 08:09:24;;;;;;;;;;;21.40;50.70;;;;;;7390949;19;20028;-82
2022/06/26 08:11:53;;;;;;;10.10;1.50;;;21.50;50.40;;;;;;7389071;19;19922;-83
2022/06/26 08:14:22;;;;;;;12.13;2.03;;;21.50;50.30;;;;;;7392065;19;20090;-83
2022/06/26 08:16:50;;;;;;;8.40;1.95;;;21.50;50.60;;;;;;7382699;19;20037;-81
2022/06/26 08:19:19;;;;;;;5.72;1.48;;;21.40;50.20;;;;;;7402670;19;20023;-86
2022/06/26 08:22:03;;;;;;;13.52;1.85;;;21.40;50.70;;;;;;7381893;19;20529;-84
2022/06/26 08:24:36;;;;;;;7.70;1.65;;;21.40;51.20;;;;;;7383302;19;20017;-84
2022/06/26 08:27:05;;;;;;;9.00;2.38;;;21.40;50.80;;;;;;7382074;19;20040;-86
2022/06/26 08:29:33;;;;;;;5.60;1.50;;;21.40;50.00;;;;;;7379755;19;20100;-84
2022/06/26 08:32:02;;;;;;;8.23;1.50;;;21.50;50.40;;;;;;7375916;19;20094;-82
2022/06/26 08:34:31;;;;;;;7.93;1.75;;;21.50;51.00;;;;;;7393128;19;20101;-81
2022/06/26 08:37:00;;;;;;;5.70;1.33;;;21.50;50.00;;;;;;7398391;19;20018;-83
2022/06/26 08:39:28;;;;;;;11.25;1.55;;;21.60;50.30;;;;;;7376015;19;20749;-88
2022/06/26 08:42:00;;;;;;;10.00;1.90;;;21.60;50.20;;;;;;7377913;19;20014;-82
2022/06/26 08:44:30;;;;;;;70.75;53.20;;;21.70;50.20;;;;;;7379968;19;20097;-85
2022/06/26 08:47:00;;;;;;;12.27;2.83;;;21.70;49.30;;;;;;7392360;19;20010;-87
2022/06/26 08:49:29;;;;;;;13.50;2.10;;;21.70;49.50;;;;;;7402110;19;20085;-84
2022/06/26 08:51:58;;;;;;;10.07;1.58;;;21.80;49.90;;;;;;7386436;19;20014;-90
2022/06/26 08:54:30;;;;;;;8.98;1.92;;;21.80;48.80;;;;;;7394414;19;20526;-88
2022/06/26 08:57:01;;;;;;;7.18;1.48;;;21.90;47.90;;;;;;7390731;19;20419;-83
2022/06/26 08:59:32;;;;;;;8.88;1.70;;;22.00;47.50;;;;;;7378877;19;20039;-80
2022/06/26 09:02:01;;;;;;;487.33;298.70;;;22.00;47.40;;;;;;7389490;19;20052;-85
2022/06/26 09:04:33;;;;;;;95.20;62.25;;;22.10;47.40;;;;;;7405382;19;20114;-82
2022/06/26 09:44:50;;;;;;;8.93;1.67;;;22.40;45.00;;;;;;7298308;19;2004820;-86
2022/06/26 10:12:22;;;;;;;5.23;1.40;;;22.10;43.60;;;;;;7379550;19;20291;-90
2022/06/26 10:14:58;;;;;;;5.00;1.73;;;22.10;44.70;;;;;;7380450;19;20260;-83
2022/06/26 10:17:51;;;;;;;7.35;1.52;;;22.20;45.30;;;;;;7394803;19;20467;-84
2022/06/26 10:20:25;;;;;;;6.35;1.40;;;22.20;45.80;;;;;;7377429;19;20018;-84
2022/06/26 10:22:54;;;;;;;8.20;1.73;;;22.20;44.60;;;;;;7375896;19;20093;-83
2022/06/26 10:25:26;;;;;;;4.45;1.40;;;22.30;44.80;;;;;;7376653;19;20018;-83
2022/06/26 10:28:04;;;;;;;3.92;1.30;;;22.30;45.20;;;;;;7374921;19;20347;-83
2022/06/26 10:30:36;;;;;;;10.73;4.00;;;22.30;45.20;;;;;;7374010;19;20011;-83
2022/06/26 10:33:29;;;;;;;4.03;1.40;;;22.40;45.30;;;;;;7376918;19;20018;-83
2022/06/26 10:35:59;;;;;;;6.07;1.70;;;22.40;44.10;;;;;;7377047;19;20030;-82
2022/06/26 10:38:34;;;;;;;9.43;1.50;;;22.60;44.00;;;;;;7397384;19;20366;-83
2022/06/26 10:44:15;;;;;;;;;;;22.60;43.90;;;;;;7378151;19;20011;-82
2022/06/26 10:46:49;;;;;;;6.47;1.42;;;22.80;43.50;;;;;;7374556;19;19925;-83
2022/06/26 10:49:19;;;;;;;5.47;1.25;;;22.70;43.20;;;;;;7376660;19;20054;-83
2022/06/26 10:51:48;;;;;;;5.78;1.38;;;22.70;43.60;;;;;;7375416;19;20010;-83
2022/06/26 10:54:22;;;;;;;7.10;1.35;;;22.70;43.50;;;;;;7373620;19;20011;-83
2022/06/26 10:57:17;;;;;;;4.13;1.20;;;22.70;44.40;;;;;;7372386;19;20018;-83
2022/06/26 10:59:57;;;;;;;5.10;1.20;;;22.80;42.20;;;;;;7400554;19;20035;-83
2022/06/26 11:02:27;;;;;;;5.13;1.50;;;22.90;40.90;;;;;;7374845;19;20010;-84
2022/06/26 11:04:56;;;;;;;4.13;1.15;;;23.00;42.70;;;;;;7376159;19;20018;-84
2022/06/26 11:07:45;;;;;;;6.60;1.33;;;23.00;42.20;;;;;;7373771;19;20021;-89
2022/06/26 11:10:19;;;;;;;3.67;1.45;;;23.00;41.80;;;;;;7372450;19;20430;-81
2022/06/26 11:12:49;;;;;;;4.65;1.50;;;23.10;43.60;;;;;;7375281;19;20028;-85
2022/06/26 11:15:46;;;;;;;6.65;1.58;;;23.20;44.80;;;;;;7369570;19;20086;-83
2022/06/26 11:18:15;;;;;;;5.03;1.40;;;23.30;43.90;;;;;;7376053;19;20021;-83
2022/06/26 11:20:54;;;;;;;5.47;1.65;;;23.40;42.30;;;;;;7394885;19;20339;-88
2022/06/26 11:23:28;;;;;;;37.05;18.08;;;23.40;42.70;;;;;;7376428;19;20014;-83
2022/06/26 11:25:59;;;;;;;8.40;3.50;;;23.40;43.20;;;;;;7375420;19;20017;-84
2022/06/26 11:28:38;;;;;;;2.97;1.30;;;23.50;42.50;;;;;;7375748;19;20011;-84
2022/06/26 11:31:21;;;;;;;7.05;1.88;;;23.60;41.80;;;;;;7376263;19;20074;-85
2022/06/26 11:34:13;;;;;;;6.22;1.60;;;23.60;41.30;;;;;;7380520;19;20019;-83
2022/06/26 11:36:58;;;;;;;6.20;1.70;;;23.60;41.90;;;;;;7338370;19;20036;-83
2022/06/26 11:39:47;;;;;;;4.32;1.70;;;23.60;41.80;;;;;;7377753;19;20145;-83
2022/06/26 11:42:21;;;;;;;5.57;1.60;;;23.60;42.60;;;;;;7381220;19;20010;-83
2022/06/26 11:44:52;;;;;;;6.60;1.80;;;23.40;43.40;;;;;;7383395;19;20320;-84
2022/06/26 11:47:36;;;;;;;8.48;1.50;;;23.50;43.40;;;;;;7403596;19;20078;-84
2022/06/26 11:50:30;;;;;;;12.77;4.65;;;23.50;42.80;;;;;;7380031;19;20026;-84
2022/06/26 11:53:04;;;;;;;12.10;3.42;;;23.40;43.00;;;;;;7383717;19;20019;-83
2022/06/26 11:56:02;;;;;;;9.75;3.67;;;23.50;43.20;;;;;;7378485;19;20034;-84
2022/06/26 11:58:43;;;;;;;8.68;1.98;;;23.40;43.60;;;;;;7377218;19;20073;-83
2022/06/26 12:01:47;;;;;;;3.35;1.60;;;23.50;43.90;;;;;;7380906;19;20046;-84
2022/06/26 12:04:51;;;;;;;5.07;1.50;;;23.60;44.20;;;;;;7340765;19;20014;-83
2022/06/26 12:07:41;;;;;;;4.20;1.65;;;23.90;44.50;;;;;;7380500;19;20021;-84
2022/06/26 12:10:11;;;;;;;7.70;1.65;;;24.20;43.70;;;;;;7380017;19;20027;-84
2022/06/26 12:12:50;;;;;;;5.60;1.65;;;24.30;42.20;;;;;;7384766;19;20027;-84
2022/06/26 12:15:20;;;;;;;4.20;1.63;;;24.30;42.20;;;;;;7377932;19;20015;-84
2022/06/26 12:17:55;;;;;;;7.10;1.55;;;24.20;42.60;;;;;;7383063;19;20015;-84
2022/06/26 12:20:24;;;;;;;5.22;1.60;;;24.10;42.50;;;;;;7404333;19;20023;-84
2022/06/26 12:26:48;;;;;;;4.97;1.67;;;24.10;43.00;;;;;;7394261;19;20461;-85
2022/06/26 12:29:21;;;;;;;195.98;157.45;;;24.10;43.10;;;;;;7423244;19;20011;-90
2022/06/26 12:31:50;;;;;;;59.53;42.85;;;24.20;43.40;;;;;;7399683;19;20035;-89
2022/06/26 12:34:34;;;;;;;40.17;25.98;;;24.20;43.50;;;;;;7385355;19;20043;-87
2022/06/26 12:37:41;;;;;;;10.38;4.60;;;24.30;44.10;;;;;;7378468;19;20014;-87
2022/06/26 13:24:14;;;;;;;49.15;38.55;;;25.50;41.70;;;;;;7373912;19;20035;-89
2022/06/26 13:32:02;;;;;;;23.55;14.45;;;25.40;42.10;;;;;;7399602;19;20018;-80
2022/06/26 13:34:31;;;;;;;5.88;2.72;;;25.40;41.10;;;;;;7374323;19;20045;-81
2022/06/26 13:37:03;;;;;;;7.47;1.88;;;25.30;40.70;;;;;;7377194;19;20027;-82
2022/06/26 13:39:37;;;;;;;8.48;1.83;;;25.20;40.90;;;;;;7376561;19;20452;-83
2022/06/26 13:42:07;;;;;;;6.60;2.65;;;25.20;41.00;;;;;;7374559;19;20007;-83
2022/06/26 13:44:36;;;;;;;5.97;2.92;;;25.20;41.60;;;;;;7397082;19;20034;-82
2022/06/26 13:47:05;;;;;;;5.15;1.60;;;25.10;41.60;;;;;;7375185;19;20039;-82
2022/06/26 13:49:34;;;;;;;6.55;1.80;;;25.10;41.40;;;;;;7376905;19;20086;-82
2022/06/26 13:52:05;;;;;;;6.53;1.65;;;25.00;41.50;;;;;;7373350;19;20098;-81
2022/06/26 13:54:34;;;;;;;8.70;2.20;;;25.10;41.90;;;;;;7375036;19;20035;-82
2022/06/26 13:57:03;;;;;;;8.30;3.33;;;25.10;42.20;;;;;;7374409;19;20454;-81
2022/06/26 13:59:32;;;;;;;9.05;2.08;;;25.10;42.90;;;;;;7395296;19;20019;-82
2022/06/26 14:02:01;;;;;;;8.48;1.70;;;25.10;42.70;;;;;;7374221;19;20043;-82
2022/06/26 14:04:30;;;;;;;3.40;1.35;;;25.30;42.40;;;;;;7371291;19;20019;-81
2022/06/26 14:06:59;;;;;;;7.10;1.50;;;25.30;41.50;;;;;;7375787;19;20676;-81
2022/06/26 14:09:30;;;;;;;4.63;1.52;;;25.30;41.90;;;;;;7374559;19;20014;-81
2022/06/26 14:11:59;;;;;;;7.28;1.65;;;25.30;42.20;;;;;;7372301;19;20015;-81
2022/06/26 14:14:28;;;;;;;3.85;1.50;;;25.40;42.50;;;;;;7395539;19;20022;-80
2022/06/26 14:16:57;;;;;;;5.55;1.33;;;25.40;42.20;;;;;;7373284;19;20162;-81
2022/06/26 14:19:25;;;;;;;3.47;1.50;;;25.50;41.80;;;;;;7373891;19;20018;-80
2022/06/26 14:25:55;;;;;;;5.20;1.70;;;25.50;41.30;;;;;;7373416;19;20348;-81
2022/06/26 14:27:32;;;;;;;4.63;1.67;;;25.50;42.60;;;;;;7374127;19;20086;-81
2022/06/26 14:30:01;;;;;;;6.47;1.52;;;25.60;42.80;;;;;;7374045;19;20023;-81
2022/06/26 14:32:29;;;;;;;4.55;1.83;;;25.80;42.20;;;;;;7395104;19;20022;-81
2022/06/26 14:34:58;;;;;;;9.73;1.75;;;25.90;42.20;;;;;;7373726;19;20529;-81
2022/06/26 14:37:27;;;;;;;6.28;1.50;;;25.90;42.30;;;;;;7375162;19;20024;-81
2022/06/26 14:39:58;;;;;;;4.07;1.55;;;25.90;41.90;;;;;;7373185;19;20098;-81
2022/06/26 14:42:27;;;;;;;12.10;1.67;;;26.00;42.90;;;;;;7370520;19;20019;-82
2022/06/26 14:44:56;;;;;;;5.28;1.65;;;26.00;41.60;;;;;;7373933;19;20091;-82
2022/06/26 14:47:24;;;;;;;9.35;1.73;;;25.90;41.70;;;;;;7395945;19;20068;-81
2022/06/26 14:49:53;;;;;;;8.38;2.08;;;25.90;41.10;;;;;;7373832;19;20370;-82
2022/06/26 14:52:23;;;;;;;9.23;1.73;;;25.90;41.60;;;;;;7373482;19;20014;-82
2022/06/26 14:54:52;;;;;;;7.97;1.60;;;26.00;41.00;;;;;;7373728;19;20019;-82
2022/06/26 14:57:24;;;;;;;5.28;1.80;;;26.00;41.00;;;;;;7373217;19;20014;-81
2022/06/26 14:59:52;;;;;;;3.63;1.40;;;25.90;41.00;;;;;;7372679;19;20046;-81
2022/06/26 15:02:21;;;;;;;7.28;1.85;;;26.00;41.10;;;;;;7394432;19;20015;-80
2022/06/26 15:04:50;;;;;;;7.07;1.50;;;25.90;41.30;;;;;;7372134;19;20350;-83
2022/06/26 15:07:19;;;;;;;4.82;1.90;;;25.90;40.90;;;;;;7374185;19;20007;-80
2022/06/26 15:09:47;;;;;;;5.13;1.60;;;25.80;41.30;;;;;;7372295;19;20015;-82
2022/06/26 15:12:16;;;;;;;4.82;1.50;;;25.70;41.10;;;;;;7370707;19;20019;-81
2022/06/26 15:14:48;;;;;;;8.00;1.80;;;25.60;41.60;;;;;;7394918;19;20019;-81